Time;durP1;ratioP1;P1;durP2;ratioP2;P2;SDS_P1;SDS_P2;PMS_P1;PMS_P2;Temp;Humidity;BMP_temperature;BMP_pressure;BME280_temperature;BME280_humidity;BME280_pressure;Samples;Min_cycle;Max_cycle;Signal;HPM_P1;HPM_P2
2023/06/06 00:01:43;;;;;;;0.45;0.45;;;9.60;99.90;;;;;;5067975;28;20049;-74
2023/06/06 00:04:09;;;;;;;0.50;0.50;;;9.60;99.90;;;;;;5067611;28;20401;-74
2023/06/06 00:06:35;;;;;;;0.43;0.43;;;9.60;99.90;;;;;;5068238;28;20080;-74
2023/06/06 00:09:04;;;;;;;0.50;0.50;;;9.60;99.90;;;;;;5051633;28;20512;-73
2023/06/06 00:11:31;;;;;;;0.50;0.50;;;9.60;99.90;;;;;;5068480;28;20052;-74
2023/06/06 00:13:57;;;;;;;0.38;0.38;;;9.50;99.90;;;;;;5068136;28;20051;-73
2023/06/06 00:16:32;;;;;;;0.32;0.32;;;9.50;99.90;;;;;;5067801;28;20060;-74
2023/06/06 00:18:58;;;;;;;0.40;0.40;;;9.50;99.90;;;;;;5068088;28;20040;-74
2023/06/06 00:21:24;;;;;;;;;;;9.50;99.90;;;;;;5071296;28;20131;-74
2023/06/06 00:23:52;;;;;;;0.40;0.40;;;9.50;99.90;;;;;;5088423;28;20007;-74
2023/06/06 00:26:18;;;;;;;0.60;0.60;;;9.40;99.90;;;;;;5056675;28;20543;-74
2023/06/06 00:28:43;;;;;;;0.45;0.45;;;9.40;99.90;;;;;;5067950;28;20036;-74
2023/06/06 00:31:09;;;;;;;0.40;0.40;;;9.40;99.90;;;;;;5051590;28;20044;-73
2023/06/06 00:33:35;;;;;;;0.40;0.40;;;9.30;99.90;;;;;;5035213;28;20586;-74
2023/06/06 00:36:00;;;;;;;0.30;0.30;;;9.40;99.90;;;;;;5051355;28;20059;-73
2023/06/06 00:38:26;;;;;;;0.50;0.50;;;9.30;99.90;;;;;;5050987;28;20810;-74
2023/06/06 00:40:52;;;;;;;0.50;0.50;;;9.30;99.90;;;;;;5067416;28;20525;-74
2023/06/06 00:43:17;;;;;;;0.40;0.40;;;9.30;99.90;;;;;;5063158;28;20448;-74
2023/06/06 00:45:43;;;;;;;0.50;0.50;;;9.30;99.90;;;;;;5087037;28;20143;-74
2023/06/06 00:48:09;;;;;;;0.25;0.25;;;9.20;99.90;;;;;;5047066;28;20140;-74
2023/06/06 00:50:36;;;;;;;0.35;0.35;;;9.20;99.90;;;;;;5048204;28;20127;-74
2023/06/06 00:53:04;;;;;;;0.40;0.40;;;9.20;99.90;;;;;;5050826;28;20128;-74
2023/06/06 00:55:31;;;;;;;0.40;0.40;;;9.20;99.90;;;;;;5067230;28;20056;-74
2023/06/06 00:57:59;;;;;;;0.52;0.52;;;9.20;99.90;;;;;;5050997;28;20120;-74
2023/06/06 01:00:28;;;;;;;0.43;0.43;;;9.20;99.90;;;;;;5066873;28;20106;-74
2023/06/06 01:02:54;;;;;;;0.40;0.40;;;9.10;99.90;;;;;;5069466;28;20040;-73
2023/06/06 01:05:20;;;;;;;0.40;0.40;;;9.10;99.90;;;;;;5054315;28;20051;-73
2023/06/06 01:07:53;;;;;;;0.73;0.73;;;9.10;99.90;;;;;;5071373;28;20397;-74
2023/06/06 01:10:19;;;;;;;0.40;0.40;;;9.10;99.90;;;;;;5071313;28;20391;-74
2023/06/06 01:12:48;;;;;;;0.50;0.50;;;9.00;99.90;;;;;;5037236;28;20102;-73
2023/06/06 01:15:35;;;;;;;0.60;0.60;;;9.00;99.90;;;;;;5066291;28;20166;-74
2023/06/06 01:18:02;;;;;;;;;;;8.90;99.90;;;;;;5077693;28;20080;-74
2023/06/06 01:20:29;;;;;;;0.40;0.40;;;8.90;99.90;;;;;;5090620;28;20003;-74
2023/06/06 01:22:57;;;;;;;0.40;0.40;;;8.80;99.90;;;;;;5091130;28;20036;-74
2023/06/06 01:25:25;;;;;;;0.40;0.40;;;8.80;99.90;;;;;;5100823;28;20525;-74
2023/06/06 01:27:53;;;;;;;0.28;0.28;;;8.80;99.90;;;;;;5054655;28;20044;-74
2023/06/06 01:30:22;;;;;;;0.60;0.60;;;8.80;99.90;;;;;;5070646;28;20477;-74
2023/06/06 01:33:08;;;;;;;0.47;0.47;;;8.70;99.90;;;;;;5071029;28;20079;-74
2023/06/06 01:35:48;;;;;;;0.45;0.45;;;8.80;99.90;;;;;;5050811;28;20063;-74
2023/06/06 01:38:22;;;;;;;0.30;0.30;;;8.70;99.90;;;;;;5050826;28;20375;-74
2023/06/06 01:40:51;;;;;;;0.68;0.32;;;8.70;99.90;;;;;;5050790;28;20049;-74
2023/06/06 01:43:18;;;;;;;0.60;0.60;;;8.70;99.90;;;;;;5074365;28;20118;-75
2023/06/06 01:45:45;;;;;;;0.55;0.55;;;8.70;99.90;;;;;;5090169;28;20044;-75
2023/06/06 01:48:12;;;;;;;1.48;1.42;;;8.70;99.90;;;;;;5070100;28;20344;-74
2023/06/06 01:50:38;;;;;;;0.93;0.93;;;8.60;99.90;;;;;;5070200;28;20094;-74
2023/06/06 01:53:04;;;;;;;0.50;0.50;;;8.60;99.90;;;;;;5053434;28;20050;-74
2023/06/06 01:55:29;;;;;;;0.50;0.50;;;8.60;99.90;;;;;;5069635;28;20053;-74
2023/06/06 01:57:57;;;;;;;1.02;0.93;;;8.60;99.90;;;;;;5070064;28;20056;-74
2023/06/06 02:00:23;;;;;;;0.57;0.57;;;8.60;99.90;;;;;;5053075;28;20364;-74
2023/06/06 02:02:48;;;;;;;0.43;0.43;;;8.60;99.90;;;;;;5070157;28;20047;-75
2023/06/06 02:05:14;;;;;;;0.40;0.40;;;8.60;99.90;;;;;;5053231;28;20048;-74
2023/06/06 02:07:41;;;;;;;0.50;0.50;;;8.60;99.90;;;;;;5063469;28;20466;-74
2023/06/06 02:10:07;;;;;;;0.40;0.40;;;8.60;99.90;;;;;;5050011;28;20490;-74
2023/06/06 02:12:33;;;;;;;0.45;0.45;;;8.60;99.90;;;;;;5033002;28;20061;-75
2023/06/06 02:14:59;;;;;;;;;;;8.60;99.90;;;;;;5076179;28;20047;-75
2023/06/06 02:17:26;;;;;;;0.60;0.60;;;8.70;99.90;;;;;;5089511;28;19973;-74
2023/06/06 02:19:52;;;;;;;0.50;0.50;;;8.60;99.90;;;;;;5107045;28;20044;-74
2023/06/06 02:22:18;;;;;;;0.50;0.50;;;8.60;99.90;;;;;;5072677;28;20055;-74
2023/06/06 02:24:43;;;;;;;0.50;0.50;;;8.60;99.90;;;;;;5088586;28;20127;-74
2023/06/06 02:27:09;;;;;;;0.55;0.55;;;8.60;99.90;;;;;;5069830;28;20394;-74
2023/06/06 02:29:36;;;;;;;0.40;0.40;;;8.70;99.90;;;;;;5052985;28;20152;-74
2023/06/06 02:32:03;;;;;;;0.80;0.80;;;8.70;99.90;;;;;;5052692;28;20093;-74
2023/06/06 02:34:29;;;;;;;0.35;0.35;;;8.70;99.90;;;;;;5052460;28;20060;-74
2023/06/06 02:36:56;;;;;;;0.40;0.40;;;8.70;99.90;;;;;;5052869;28;20055;-74
2023/06/06 02:39:22;;;;;;;0.50;0.50;;;8.70;99.90;;;;;;5069047;28;20509;-74
2023/06/06 02:41:50;;;;;;;;;;;8.70;99.90;;;;;;5069636;28;20044;-74
2023/06/06 02:44:17;;;;;;;0.40;0.40;;;8.70;99.90;;;;;;5083856;28;19920;-74
2023/06/06 02:46:43;;;;;;;0.40;0.40;;;8.80;99.90;;;;;;5069058;28;20048;-74
2023/06/06 02:49:09;;;;;;;0.40;0.40;;;8.80;99.90;;;;;;5069477;28;20032;-74
2023/06/06 02:51:36;;;;;;;1.10;0.75;;;8.80;99.90;;;;;;5068386;28;20516;-74
2023/06/06 02:54:02;;;;;;;0.98;0.98;;;8.80;99.90;;;;;;5069118;28;20047;-74
2023/06/06 02:56:29;;;;;;;0.52;0.52;;;8.80;99.90;;;;;;5068971;28;20052;-74
2023/06/06 02:58:55;;;;;;;0.40;0.40;;;8.80;99.90;;;;;;5068745;28;20060;-75
2023/06/06 03:01:21;;;;;;;0.38;0.38;;;8.90;99.90;;;;;;5068124;28;20129;-74
2023/06/06 03:03:47;;;;;;;0.50;0.50;;;8.90;99.90;;;;;;5063680;28;20044;-74
2023/06/06 03:06:15;;;;;;;0.32;0.32;;;8.90;99.90;;;;;;5048589;28;20045;-74
2023/06/06 03:08:43;;;;;;;0.43;0.43;;;8.90;99.90;;;;;;5047891;28;20050;-74
2023/06/06 03:11:09;;;;;;;0.40;0.40;;;8.90;99.90;;;;;;5071520;28;20109;-75
2023/06/06 03:13:35;;;;;;;0.43;0.43;;;8.90;99.90;;;;;;5086776;28;20044;-74
2023/06/06 03:16:01;;;;;;;0.50;0.50;;;8.90;99.90;;;;;;5053055;28;20063;-74
2023/06/06 03:18:27;;;;;;;;;;;8.90;99.90;;;;;;5069445;28;20067;-75
2023/06/06 03:20:53;;;;;;;0.50;0.50;;;8.90;99.90;;;;;;5068964;28;19932;-74
2023/06/06 03:23:20;;;;;;;0.50;0.50;;;9.00;99.90;;;;;;5068853;28;20067;-75
2023/06/06 03:25:49;;;;;;;0.40;0.40;;;9.00;99.90;;;;;;5068101;28;20045;-75
2023/06/06 03:28:19;;;;;;;0.50;0.50;;;9.00;99.90;;;;;;5069381;28;20044;-75
2023/06/06 03:30:45;;;;;;;0.50;0.50;;;9.10;99.90;;;;;;5068896;28;20536;-74
2023/06/06 03:33:11;;;;;;;1.65;1.50;;;9.10;99.90;;;;;;5068505;28;20052;-74
2023/06/06 03:35:37;;;;;;;0.65;0.65;;;9.10;99.90;;;;;;5068336;28;20040;-76
2023/06/06 03:38:03;;;;;;;0.50;0.50;;;9.20;99.90;;;;;;5068371;28;20189;-74
2023/06/06 03:40:29;;;;;;;0.40;0.40;;;9.20;99.90;;;;;;5068014;28;20507;-74
2023/06/06 03:42:55;;;;;;;0.50;0.50;;;9.20;99.90;;;;;;5077828;28;20039;-74
2023/06/06 03:45:21;;;;;;;0.40;0.40;;;9.20;99.90;;;;;;5091107;28;20075;-74
2023/06/06 03:47:47;;;;;;;0.40;0.40;;;9.60;99.90;;;;;;5068385;28;20044;-74
2023/06/06 03:50:13;;;;;;;0.90;0.90;;;9.30;99.90;;;;;;5068238;28;20079;-74
2023/06/06 03:52:40;;;;;;;0.47;0.47;;;9.30;99.90;;;;;;5068224;28;20056;-74
2023/06/06 03:55:07;;;;;;;0.50;0.50;;;9.30;99.90;;;;;;5067737;28;20060;-74
2023/06/06 03:57:33;;;;;;;0.50;0.50;;;9.30;99.90;;;;;;5067650;28;20405;-73
2023/06/06 04:00:00;;;;;;;0.30;0.30;;;9.30;99.90;;;;;;5035133;28;20047;-74
2023/06/06 04:02:27;;;;;;;0.30;0.30;;;9.30;99.90;;;;;;5067893;28;20055;-74
2023/06/06 04:04:54;;;;;;;0.50;0.50;;;9.40;99.90;;;;;;5051812;28;20155;-74
2023/06/06 04:07:19;;;;;;;;;;;9.40;99.90;;;;;;5079627;28;20051;-74
2023/06/06 04:09:45;;;;;;;0.57;0.57;;;9.50;99.90;;;;;;5071443;28;19920;-73
2023/06/06 04:12:11;;;;;;;0.30;0.30;;;9.60;99.90;;;;;;5088682;28;20052;-74
2023/06/06 04:14:37;;;;;;;0.32;0.32;;;9.60;99.90;;;;;;5077434;28;20045;-74
2023/06/06 04:17:03;;;;;;;0.50;0.50;;;9.70;99.90;;;;;;5068123;28;20052;-73
2023/06/06 04:19:28;;;;;;;0.28;0.28;;;9.70;99.90;;;;;;5067654;28;20040;-74
2023/06/06 04:21:55;;;;;;;0.40;0.40;;;9.50;99.90;;;;;;5051273;28;20546;-74
2023/06/06 04:24:21;;;;;;;0.40;0.40;;;9.80;99.90;;;;;;5068142;28;20514;-74
2023/06/06 04:26:46;;;;;;;0.45;0.45;;;9.90;99.90;;;;;;5050985;28;20131;-74
2023/06/06 04:29:13;;;;;;;0.40;0.40;;;10.00;99.90;;;;;;5068096;28;20041;-74
2023/06/06 04:31:40;;;;;;;0.50;0.50;;;10.10;99.90;;;;;;5050985;28;20489;-75
2023/06/06 04:34:09;;;;;;;0.50;0.50;;;10.10;99.90;;;;;;5067780;28;20052;-74
2023/06/06 04:36:38;;;;;;;1.42;1.40;;;10.20;99.90;;;;;;5067357;28;20129;-74
2023/06/06 04:39:08;;;;;;;0.50;0.50;;;10.30;99.90;;;;;;5071907;28;20432;-74
2023/06/06 04:41:34;;;;;;;0.40;0.40;;;10.30;99.90;;;;;;5071629;28;20393;-74
2023/06/06 04:44:03;;;;;;;0.40;0.40;;;10.40;99.90;;;;;;5087260;28;20066;-75
2023/06/06 04:46:29;;;;;;;0.47;0.47;;;10.50;99.90;;;;;;5071978;28;20380;-74
2023/06/06 04:48:56;;;;;;;0.47;0.47;;;10.60;99.90;;;;;;5071719;28;20039;-74
2023/06/06 04:51:29;;;;;;;0.40;0.40;;;10.60;99.90;;;;;;5071875;28;20151;-75
2023/06/06 04:53:57;;;;;;;1.00;0.50;;;10.70;99.90;;;;;;5056001;28;20074;-75
2023/06/06 04:56:23;;;;;;;0.50;0.50;;;10.80;99.90;;;;;;5065486;28;20072;-75
2023/06/06 04:58:48;;;;;;;0.30;0.30;;;10.90;99.90;;;;;;5051156;28;20111;-75
2023/06/06 05:01:15;;;;;;;0.40;0.40;;;11.00;99.90;;;;;;5051490;28;20076;-74
2023/06/06 05:03:41;;;;;;;0.30;0.30;;;11.00;99.90;;;;;;5075500;28;20044;-74
2023/06/06 05:06:07;;;;;;;0.93;0.60;;;11.10;99.90;;;;;;5091991;28;20553;-74
2023/06/06 05:08:41;;;;;;;0.52;0.52;;;11.20;99.90;;;;;;5091454;28;20048;-74
2023/06/06 05:11:07;;;;;;;0.45;0.45;;;11.30;99.90;;;;;;5091573;28;20409;-75
2023/06/06 05:13:33;;;;;;;0.40;0.40;;;11.30;99.90;;;;;;5089067;28;20077;-75
2023/06/06 05:16:00;;;;;;;0.30;0.30;;;11.40;99.90;;;;;;5071155;28;20045;-75
2023/06/06 05:18:25;;;;;;;;;;;11.50;99.90;;;;;;5054973;28;20036;-74
2023/06/06 05:20:51;;;;;;;0.65;0.43;;;11.50;99.90;;;;;;5070721;28;19921;-74
2023/06/06 05:23:17;;;;;;;0.77;0.77;;;11.50;99.90;;;;;;5054718;28;20192;-75
2023/06/06 05:25:42;;;;;;;0.20;0.20;;;11.60;99.90;;;;;;5070327;28;20052;-75
2023/06/06 05:28:11;;;;;;;0.40;0.40;;;11.70;99.90;;;;;;5054813;28;20055;-75
2023/06/06 05:30:37;;;;;;;0.40;0.40;;;11.80;99.90;;;;;;5071090;28;20362;-75
2023/06/06 05:33:03;;;;;;;0.50;0.50;;;11.80;99.90;;;;;;5054815;28;20070;-75
2023/06/06 05:35:28;;;;;;;0.55;0.55;;;11.90;99.90;;;;;;5071032;28;20154;-75
2023/06/06 05:37:54;;;;;;;0.30;0.30;;;12.00;99.90;;;;;;5054433;28;20052;-74
2023/06/06 05:40:20;;;;;;;0.20;0.20;;;12.00;99.90;;;;;;5071206;28;20041;-75
2023/06/06 05:42:45;;;;;;;0.35;0.35;;;12.10;99.90;;;;;;5078445;28;20126;-75
2023/06/06 05:45:11;;;;;;;0.50;0.50;;;12.20;99.90;;;;;;5044786;28;20048;-75
2023/06/06 05:47:36;;;;;;;0.52;0.50;;;12.20;99.90;;;;;;5053784;28;20040;-75
2023/06/06 05:50:02;;;;;;;0.30;0.30;;;12.30;99.90;;;;;;5070723;28;20050;-74
2023/06/06 05:52:28;;;;;;;0.32;0.32;;;12.30;99.90;;;;;;5070669;28;20044;-75
2023/06/06 05:55:04;;;;;;;0.20;0.20;;;12.30;99.90;;;;;;5070114;28;20414;-74
2023/06/06 05:57:30;;;;;;;1.25;0.80;;;12.40;99.90;;;;;;5070636;28;20090;-75
2023/06/06 06:00:00;;;;;;;0.30;0.30;;;12.40;99.90;;;;;;5065043;28;20082;-75
2023/06/06 06:02:28;;;;;;;0.40;0.40;;;12.50;99.90;;;;;;5074243;28;20051;-75
2023/06/06 06:04:56;;;;;;;0.40;0.40;;;12.70;99.90;;;;;;5091181;28;20500;-75
2023/06/06 06:07:23;;;;;;;0.38;0.38;;;12.90;99.90;;;;;;5090757;28;20043;-75
2023/06/06 06:09:49;;;;;;;0.30;0.30;;;13.10;99.90;;;;;;5090357;28;20724;-75
2023/06/06 06:12:15;;;;;;;0.40;0.40;;;13.20;99.90;;;;;;5090608;28;20435;-75
2023/06/06 06:14:41;;;;;;;;;;;13.40;99.90;;;;;;5079307;28;20238;-74
2023/06/06 06:17:06;;;;;;;0.30;0.30;;;13.60;99.90;;;;;;5070027;28;19939;-74
2023/06/06 06:19:32;;;;;;;1.08;1.08;;;13.70;99.90;;;;;;5070161;28;20275;-74
2023/06/06 06:21:58;;;;;;;0.30;0.30;;;13.70;99.90;;;;;;5069605;28;20044;-74
2023/06/06 06:24:23;;;;;;;;;;;13.70;99.90;;;;;;5053766;28;20047;-74
2023/06/06 06:26:51;;;;;;;0.50;0.50;;;13.70;99.90;;;;;;5069750;28;20356;-74
2023/06/06 06:29:17;;;;;;;0.32;0.32;;;13.70;99.90;;;;;;5069677;28;20044;-74
2023/06/06 06:31:42;;;;;;;0.40;0.40;;;13.70;99.90;;;;;;5036042;28;20109;-75
2023/06/06 06:34:08;;;;;;;;;;;13.80;99.90;;;;;;5072366;28;20075;-74
2023/06/06 06:36:33;;;;;;;0.45;0.45;;;13.90;99.90;;;;;;5069527;28;20289;-74
2023/06/06 06:38:59;;;;;;;0.40;0.40;;;14.10;99.90;;;;;;5069250;28;20145;-74
2023/06/06 06:41:25;;;;;;;;;;;14.10;99.90;;;;;;5069763;28;20074;-74
2023/06/06 06:43:51;;;;;;;0.28;0.28;;;14.10;99.90;;;;;;5067512;28;19915;-74
2023/06/06 06:46:17;;;;;;;0.47;0.47;;;14.20;99.90;;;;;;5052742;28;20047;-74
2023/06/06 06:48:45;;;;;;;0.60;0.60;;;14.30;99.90;;;;;;5069169;28;20418;-75
2023/06/06 06:51:13;;;;;;;0.30;0.30;;;14.30;99.90;;;;;;5072258;28;20055;-74
2023/06/06 06:53:39;;;;;;;0.50;0.50;;;14.30;99.90;;;;;;5081459;28;20041;-74
2023/06/06 06:56:06;;;;;;;0.40;0.40;;;14.30;99.90;;;;;;5063304;28;20478;-74
2023/06/06 06:58:35;;;;;;;2.67;1.02;;;14.30;99.90;;;;;;5072922;28;20051;-74
2023/06/06 07:01:02;;;;;;;0.35;0.35;;;14.20;99.90;;;;;;5105245;28;20107;-74
2023/06/06 07:03:28;;;;;;;0.75;0.75;;;14.20;99.90;;;;;;5107126;28;20040;-74
2023/06/06 07:05:54;;;;;;;;;;;14.20;99.90;;;;;;5106498;28;20040;-74
2023/06/06 07:08:20;;;;;;;0.50;0.50;;;14.20;99.90;;;;;;5089753;28;20242;-74
2023/06/06 07:10:46;;;;;;;;;;;14.30;99.90;;;;;;5090756;28;20067;-74
2023/06/06 07:13:15;;;;;;;0.30;0.30;;;14.30;99.90;;;;;;5089433;28;19966;-74
2023/06/06 07:15:40;;;;;;;0.30;0.30;;;14.30;99.90;;;;;;5053023;28;20520;-74
2023/06/06 07:18:06;;;;;;;0.40;0.40;;;14.40;99.90;;;;;;5068972;28;20052;-74
2023/06/06 07:20:33;;;;;;;;;;;14.50;99.90;;;;;;5069849;28;20568;-74
2023/06/06 07:22:59;;;;;;;0.30;0.30;;;14.60;99.90;;;;;;5052662;28;19967;-75
2023/06/06 07:25:24;;;;;;;;;;;14.70;99.90;;;;;;5069513;28;20076;-75
2023/06/06 07:27:52;;;;;;;0.30;0.30;;;14.90;99.90;;;;;;5070133;28;19969;-75
2023/06/06 07:30:17;;;;;;;0.93;0.45;;;15.10;99.90;;;;;;5052868;28;20052;-76
2023/06/06 07:32:46;;;;;;;0.40;0.40;;;15.10;99.90;;;;;;5068384;28;20036;-75
2023/06/06 07:35:20;;;;;;;0.35;0.35;;;15.10;99.90;;;;;;5068943;28;20494;-75
2023/06/06 07:37:46;;;;;;;0.30;0.30;;;15.00;99.90;;;;;;5068559;28;20041;-75
2023/06/06 07:40:12;;;;;;;0.22;0.22;;;14.90;99.90;;;;;;5069013;28;20062;-75
2023/06/06 07:42:39;;;;;;;;;;;14.90;99.90;;;;;;5075864;28;20040;-75
2023/06/06 07:45:06;;;;;;;0.32;0.32;;;14.90;99.90;;;;;;5070632;28;19921;-75
2023/06/06 07:47:31;;;;;;;0.70;0.45;;;14.90;99.90;;;;;;5049338;28;20071;-74
2023/06/06 07:49:58;;;;;;;0.85;0.85;;;15.00;99.90;;;;;;5050255;28;20036;-75
2023/06/06 07:52:25;;;;;;;0.10;0.10;;;15.20;99.90;;;;;;5063145;28;20043;-75
2023/06/06 07:54:51;;;;;;;1.45;0.45;;;15.40;99.90;;;;;;5070865;28;20044;-75
2023/06/06 07:57:17;;;;;;;;;;;15.50;99.90;;;;;;5068918;28;20405;-77
2023/06/06 07:59:43;;;;;;;0.30;0.30;;;15.70;99.90;;;;;;5068732;28;20377;-75
2023/06/06 08:02:10;;;;;;;0.25;0.25;;;15.70;99.90;;;;;;5068252;28;20123;-75
2023/06/06 08:04:36;;;;;;;0.65;0.65;;;15.70;99.90;;;;;;5068530;28;20049;-75
2023/06/06 08:07:05;;;;;;;1.02;0.80;;;15.70;99.90;;;;;;5051442;28;20051;-75
2023/06/06 08:09:31;;;;;;;0.30;0.30;;;15.60;99.90;;;;;;5052121;28;20171;-75
2023/06/06 08:11:57;;;;;;;0.50;0.50;;;15.60;99.90;;;;;;5067956;28;20545;-75
2023/06/06 08:14:22;;;;;;;;;;;15.60;99.90;;;;;;5068554;28;20440;-74
2023/06/06 08:16:48;;;;;;;1.02;0.95;;;15.60;99.90;;;;;;5067798;28;19927;-74
2023/06/06 08:19:14;;;;;;;0.40;0.40;;;15.80;99.90;;;;;;5068343;28;20127;-74
2023/06/06 08:21:40;;;;;;;;;;;16.00;99.90;;;;;;5068410;28;20596;-74
2023/06/06 08:24:05;;;;;;;0.57;0.40;;;16.20;99.90;;;;;;5067844;28;20262;-73
2023/06/06 08:26:31;;;;;;;;;;;16.20;99.90;;;;;;5052378;28;20043;-76
2023/06/06 08:28:57;;;;;;;0.20;0.20;;;16.20;99.90;;;;;;5031997;28;19976;-74
2023/06/06 08:31:23;;;;;;;0.70;0.70;;;16.10;99.90;;;;;;5048436;28;20045;-75
2023/06/06 08:33:49;;;;;;;2.88;0.93;;;16.10;99.90;;;;;;5053335;28;20080;-75
2023/06/06 08:36:15;;;;;;;0.20;0.20;;;16.00;99.90;;;;;;5068306;28;20075;-75
2023/06/06 08:38:43;;;;;;;;;;;15.90;99.90;;;;;;5068730;28;20036;-75
2023/06/06 08:41:10;;;;;;;1.10;0.50;;;15.80;99.90;;;;;;5067452;28;19924;-75
2023/06/06 08:43:39;;;;;;;3.17;2.38;;;15.90;99.90;;;;;;5083046;28;20032;-75
2023/06/06 08:46:05;;;;;;;1.70;1.60;;;16.00;99.90;;;;;;5048216;28;20088;-75
2023/06/06 08:48:34;;;;;;;1.75;0.60;;;15.90;99.90;;;;;;5062644;28;20032;-75
2023/06/06 08:51:03;;;;;;;0.55;0.50;;;16.00;99.90;;;;;;5068814;28;20478;-75
2023/06/06 08:53:30;;;;;;;0.35;0.35;;;16.10;99.90;;;;;;5081747;28;20048;-76
2023/06/06 08:55:57;;;;;;;0.20;0.20;;;16.40;99.90;;;;;;5067223;28;20048;-75
2023/06/06 08:58:23;;;;;;;0.25;0.25;;;16.70;99.90;;;;;;5067566;28;20139;-75
2023/06/06 09:00:50;;;;;;;0.55;0.40;;;16.70;99.90;;;;;;5067157;28;20056;-75
2023/06/06 09:03:17;;;;;;;0.32;0.32;;;16.60;99.90;;;;;;5067609;28;20437;-75
2023/06/06 09:05:43;;;;;;;0.30;0.30;;;16.60;99.90;;;;;;5067843;28;20058;-75
2023/06/06 09:08:09;;;;;;;0.20;0.20;;;16.70;99.90;;;;;;5068608;28;20454;-75
2023/06/06 09:10:35;;;;;;;;;;;16.60;99.90;;;;;;5068529;28;20652;-75
2023/06/06 09:13:01;;;;;;;0.30;0.30;;;16.40;99.90;;;;;;5067812;28;19924;-74
2023/06/06 09:15:28;;;;;;;0.35;0.35;;;16.40;99.90;;;;;;5067582;28;20374;-74
2023/06/06 09:17:54;;;;;;;0.20;0.20;;;16.40;99.90;;;;;;5067231;28;20102;-74
2023/06/06 09:20:22;;;;;;;2.00;0.77;;;16.60;99.90;;;;;;5067777;28;20041;-75
2023/06/06 09:22:49;;;;;;;0.57;0.57;;;16.80;99.90;;;;;;5050760;28;20064;-75
2023/06/06 09:25:25;;;;;;;0.43;0.43;;;17.00;99.90;;;;;;5070792;28;20078;-75
2023/06/06 09:27:59;;;;;;;;;;;17.00;99.90;;;;;;5071331;28;20063;-74
2023/06/06 09:30:30;;;;;;;0.40;0.40;;;16.90;99.90;;;;;;5054280;28;19916;-74
2023/06/06 09:33:01;;;;;;;1.73;1.20;;;16.70;99.90;;;;;;5053647;28;20044;-74
2023/06/06 09:35:35;;;;;;;0.20;0.20;;;16.70;99.90;;;;;;5054800;28;20041;-75
2023/06/06 09:38:15;;;;;;;0.28;0.28;;;16.70;99.90;;;;;;5061452;28;20049;-75
2023/06/06 09:40:48;;;;;;;0.75;0.75;;;16.70;99.90;;;;;;5051027;28;20049;-74
2023/06/06 09:43:17;;;;;;;0.65;0.65;;;16.70;99.90;;;;;;5057803;28;20048;-75
2023/06/06 09:45:55;;;;;;;0.35;0.35;;;16.70;99.90;;;;;;5072736;28;20092;-74
2023/06/06 09:48:28;;;;;;;1.30;0.57;;;16.70;99.90;;;;;;5071491;28;20047;-74
2023/06/06 09:50:55;;;;;;;0.32;0.32;;;16.70;99.90;;;;;;5071370;28;20051;-74
2023/06/06 09:53:28;;;;;;;1.23;0.52;;;16.70;99.90;;;;;;5085975;28;20193;-75
2023/06/06 09:55:58;;;;;;;0.50;0.50;;;16.80;99.90;;;;;;5070201;28;20088;-75
2023/06/06 09:58:26;;;;;;;2.67;0.40;;;17.00;99.90;;;;;;5070874;28;20141;-75
2023/06/06 10:00:57;;;;;;;1.75;1.30;;;17.10;99.90;;;;;;5070445;28;20215;-75
2023/06/06 10:03:24;;;;;;;0.35;0.35;;;17.10;99.90;;;;;;5071088;28;20125;-75
2023/06/06 10:05:51;;;;;;;0.45;0.45;;;17.10;99.90;;;;;;5070728;28;20436;-75
2023/06/06 10:08:18;;;;;;;0.30;0.30;;;17.10;99.90;;;;;;5070634;28;20039;-75
2023/06/06 10:10:49;;;;;;;0.63;0.63;;;17.20;99.90;;;;;;5070780;28;20482;-75
2023/06/06 10:13:25;;;;;;;0.95;0.95;;;17.10;99.90;;;;;;5070270;28;20128;-75
2023/06/06 10:15:52;;;;;;;0.40;0.40;;;17.00;99.90;;;;;;5050723;28;20033;-75
2023/06/06 10:18:18;;;;;;;0.28;0.28;;;17.00;99.90;;;;;;5050205;28;20051;-75
2023/06/06 10:20:44;;;;;;;0.20;0.20;;;17.00;99.90;;;;;;5050670;28;20037;-75
2023/06/06 10:23:11;;;;;;;0.20;0.20;;;17.10;99.90;;;;;;5049932;28;20057;-75
2023/06/06 10:25:37;;;;;;;0.30;0.30;;;17.20;99.90;;;;;;5058639;28;20041;-74
2023/06/06 10:28:02;;;;;;;;;;;17.10;99.90;;;;;;5070345;28;20137;-75
2023/06/06 10:30:46;;;;;;;0.63;0.63;;;17.30;99.90;;;;;;5070100;28;20365;-75
2023/06/06 10:33:44;;;;;;;0.30;0.30;;;17.40;99.90;;;;;;5069598;28;20037;-75
2023/06/06 10:36:15;;;;;;;0.47;0.47;;;17.60;99.90;;;;;;5048342;28;20041;-75
2023/06/06 10:39:01;;;;;;;0.32;0.32;;;17.70;99.90;;;;;;5050502;28;20381;-75
2023/06/06 10:41:41;;;;;;;0.20;0.20;;;18.00;99.90;;;;;;5060967;28;20493;-76
2023/06/06 10:44:08;;;;;;;0.32;0.32;;;18.30;99.90;;;;;;5070461;28;20432;-75
2023/06/06 10:46:34;;;;;;;0.17;0.17;;;18.50;99.90;;;;;;5070025;28;20033;-75
2023/06/06 10:49:02;;;;;;;0.77;0.77;;;18.50;99.90;;;;;;5052780;28;20044;-75
2023/06/06 10:51:36;;;;;;;0.22;0.22;;;18.30;99.90;;;;;;5074405;28;20043;-76
2023/06/06 10:54:18;;;;;;;0.28;0.28;;;18.10;99.90;;;;;;5078808;28;20040;-75
2023/06/06 10:56:47;;;;;;;0.30;0.30;;;18.20;99.90;;;;;;5069262;28;20068;-75
2023/06/06 10:59:15;;;;;;;1.00;0.70;;;18.20;99.90;;;;;;5069116;28;20102;-76
2023/06/06 11:01:42;;;;;;;0.85;0.85;;;18.10;99.90;;;;;;5069431;28;20051;-75
2023/06/06 11:04:19;;;;;;;0.35;0.35;;;18.00;99.90;;;;;;5069086;28;20051;-75
2023/06/06 11:06:45;;;;;;;;;;;17.90;99.90;;;;;;5053739;28;20041;-76
2023/06/06 11:09:28;;;;;;;0.70;0.52;;;17.90;99.90;;;;;;5069575;28;19920;-75
2023/06/06 11:12:13;;;;;;;0.88;0.52;;;17.90;99.90;;;;;;5069634;28;20135;-76
2023/06/06 11:14:55;;;;;;;1.15;1.05;;;17.80;99.90;;;;;;5069613;28;20105;-75
2023/06/06 11:17:27;;;;;;;0.50;0.47;;;17.70;99.90;;;;;;5068641;28;20059;-75
2023/06/06 11:19:55;;;;;;;0.65;0.55;;;17.70;99.90;;;;;;5069265;28;20048;-75
2023/06/06 11:22:25;;;;;;;0.77;0.77;;;17.70;99.90;;;;;;5068786;28;20044;-75
2023/06/06 11:24:51;;;;;;;1.10;1.05;;;18.00;99.90;;;;;;5070827;28;20089;-75
2023/06/06 11:27:17;;;;;;;1.02;1.02;;;18.10;99.90;;;;;;5069071;28;20105;-76
2023/06/06 11:29:45;;;;;;;0.20;0.20;;;18.10;99.90;;;;;;5069265;28;20497;-76
2023/06/06 11:32:13;;;;;;;0.52;0.52;;;18.10;99.90;;;;;;5068831;28;20060;-75
2023/06/06 11:34:39;;;;;;;0.30;0.30;;;18.10;99.90;;;;;;5069284;28;20389;-76
2023/06/06 11:37:06;;;;;;;;;;;18.00;99.90;;;;;;5077617;28;20050;-75
2023/06/06 11:39:32;;;;;;;0.43;0.43;;;17.90;99.90;;;;;;5088871;28;19919;-75
2023/06/06 11:41:58;;;;;;;0.30;0.30;;;17.90;99.90;;;;;;5070610;28;20036;-76
2023/06/06 11:44:35;;;;;;;0.57;0.57;;;18.10;99.90;;;;;;5068836;28;20083;-76
2023/06/06 11:47:08;;;;;;;0.20;0.20;;;18.10;99.90;;;;;;5068182;28;20769;-75
2023/06/06 11:49:46;;;;;;;1.33;1.23;;;18.10;99.90;;;;;;5068852;28;20390;-75
2023/06/06 11:52:12;;;;;;;0.20;0.20;;;18.20;99.90;;;;;;5079707;28;20052;-76
2023/06/06 11:54:38;;;;;;;0.40;0.40;;;18.40;99.90;;;;;;5073084;28;20040;-75
2023/06/06 11:57:07;;;;;;;0.40;0.40;;;18.70;99.90;;;;;;5051127;28;20060;-76
2023/06/06 11:59:36;;;;;;;1.45;0.88;;;18.70;99.90;;;;;;5068694;28;20044;-75
2023/06/06 12:02:03;;;;;;;0.32;0.30;;;18.60;99.90;;;;;;5051796;28;20056;-75
2023/06/06 12:04:28;;;;;;;0.32;0.32;;;18.70;99.90;;;;;;5051573;28;20041;-76
2023/06/06 12:06:55;;;;;;;;;;;18.60;99.90;;;;;;5051790;28;20036;-75
2023/06/06 12:09:23;;;;;;;0.80;0.80;;;18.50;99.90;;;;;;5068624;28;19924;-76
2023/06/06 12:12:00;;;;;;;0.20;0.20;;;18.40;99.90;;;;;;5068204;28;20056;-75
2023/06/06 12:14:28;;;;;;;0.50;0.50;;;18.40;99.90;;;;;;5067945;28;20040;-76
2023/06/06 12:17:02;;;;;;;0.40;0.40;;;18.50;99.90;;;;;;5068107;28;20052;-75
2023/06/06 12:19:27;;;;;;;3.72;0.82;;;18.60;99.90;;;;;;5067737;28;20052;-75
2023/06/06 12:21:53;;;;;;;;;;;18.80;99.90;;;;;;5035114;28;20076;-76
2023/06/06 12:24:24;;;;;;;3.83;1.45;;;18.90;99.90;;;;;;5051371;28;19916;-76
2023/06/06 12:26:53;;;;;;;0.30;0.30;;;19.10;99.90;;;;;;5068142;28;20040;-75
2023/06/06 12:29:22;;;;;;;0.85;0.80;;;19.10;99.90;;;;;;5051324;28;20040;-76
2023/06/06 12:32:10;;;;;;;0.65;0.65;;;19.30;99.90;;;;;;5067940;28;20045;-76
2023/06/06 12:34:53;;;;;;;0.25;0.25;;;19.50;99.90;;;;;;5074801;28;20044;-75
2023/06/06 12:37:19;;;;;;;0.40;0.40;;;19.50;99.90;;;;;;5067358;28;20081;-76
2023/06/06 12:39:46;;;;;;;0.60;0.60;;;19.40;99.90;;;;;;5051430;28;20894;-76
2023/06/06 12:42:14;;;;;;;0.20;0.20;;;19.30;99.90;;;;;;5070794;28;20044;-76
2023/06/06 12:44:40;;;;;;;0.30;0.30;;;19.40;99.90;;;;;;5096257;28;20041;-76
2023/06/06 12:47:06;;;;;;;0.20;0.20;;;19.60;99.90;;;;;;5067339;28;20044;-75
2023/06/06 12:49:36;;;;;;;2.67;0.57;;;19.70;99.90;;;;;;5052536;28;20044;-76
2023/06/06 12:52:04;;;;;;;0.50;0.50;;;19.70;99.90;;;;;;5058621;28;20044;-76
2023/06/06 12:54:30;;;;;;;0.40;0.40;;;19.60;99.90;;;;;;5050860;28;20059;-74
2023/06/06 12:56:56;;;;;;;0.50;0.50;;;19.50;99.90;;;;;;5067601;28;20071;-75
2023/06/06 12:59:26;;;;;;;0.45;0.45;;;19.50;99.90;;;;;;5070048;28;20052;-75
2023/06/06 13:01:53;;;;;;;0.85;0.85;;;19.50;99.90;;;;;;5071286;28;20053;-76